CY-0007 weather

Marki Airfield
Nicosia District, Cyprus

Public forecast

Using degrees Celsius for public forecast. Weather courtesy of forecast.io.

Closest aviation weather report (METAR) to Marki Airfield

Closest report is Ercan International Airport, 12.3 nm (22.8 km) NE. Retrieved 2019/12/15 07:20 UTC (20 minutes ago):

LCEN 150720Z 09005KT 9999 FEW025CB SCT030 BKN070 13/11 Q1015 NOSIG RMK RWY11 13005KT

Closest aviation forecast (TAF) to Marki Airfield

Closest forecast is Ercan International Airport, 12.3 nm (22.8 km) NE. Retrieved 2019/12/15 06:03 UTC (2 hours ago):

TAF TAF LCEN 150440Z 1506/1606 13015KT 9999 SCT025 BKN100 PROB40 TEMPO 1506/1510 5000 TSRA FEW020CB SCT025 BKN080